createdAt,value
2023-01-02T00:01:32.906Z,2.95
2023-01-02T00:04:05.463Z,2.81
2023-01-02T00:06:39.226Z,2.89
2023-01-02T00:09:11.692Z,2.92
2023-01-02T00:11:44.036Z,2.91
2023-01-02T00:14:16.365Z,2.89
2023-01-02T00:16:48.779Z,2.91
2023-01-02T00:19:21.272Z,2.78
2023-01-02T00:21:54.678Z,2.87
2023-01-02T00:24:27.029Z,2.84
2023-01-02T00:26:59.450Z,2.81
2023-01-02T00:29:31.837Z,2.81
2023-01-02T00:32:04.671Z,2.77
2023-01-02T00:34:37.025Z,2.75
2023-01-02T00:37:10.103Z,2.75
2023-01-02T00:39:42.435Z,2.72
2023-01-02T00:42:14.828Z,2.68
2023-01-02T00:44:47.109Z,2.70
2023-01-02T00:47:19.492Z,2.70
2023-01-02T00:49:51.761Z,2.73
2023-01-02T00:52:24.901Z,2.70
2023-01-02T00:54:57.232Z,2.68
2023-01-02T00:57:29.695Z,2.64
2023-01-02T01:00:02.304Z,2.59
2023-01-02T01:02:36.112Z,2.59
2023-01-02T01:05:08.954Z,2.56
2023-01-02T01:07:42.043Z,2.53
2023-01-02T01:10:14.477Z,2.55
2023-01-02T01:12:46.910Z,2.51
2023-01-02T01:15:19.354Z,2.52
2023-01-02T01:17:51.790Z,2.51
2023-01-02T01:20:24.337Z,2.46
2023-01-02T01:22:57.373Z,2.47
2023-01-02T01:25:29.682Z,2.46
2023-01-02T01:28:02.121Z,2.49
2023-01-02T01:30:34.436Z,2.48
2023-01-02T01:33:06.833Z,2.47
2023-01-02T01:35:39.208Z,2.45
2023-01-02T01:38:12.310Z,2.47
2023-01-02T01:40:44.629Z,2.44
2023-01-02T01:43:16.949Z,2.45
2023-01-02T01:45:49.442Z,2.40
2023-01-02T01:48:21.856Z,2.44
2023-01-02T01:50:54.287Z,2.45
2023-01-02T01:53:27.339Z,2.40
2023-01-02T01:56:03.956Z,2.42
2023-01-02T01:58:42.342Z,2.44
2023-01-02T02:01:17.115Z,2.33
2023-01-02T02:03:50.828Z,2.44
2023-01-02T02:06:23.266Z,2.36
2023-01-02T02:09:01.469Z,2.37
2023-01-02T02:11:35.361Z,2.38
2023-01-02T02:14:07.789Z,2.38
2023-01-02T02:16:49.440Z,2.37
2023-01-02T02:19:58.873Z,2.38
2023-01-02T02:23:12.929Z,2.39
2023-01-02T02:26:23.287Z,2.34
2023-01-02T02:29:28.581Z,2.30
2023-01-02T02:32:10.463Z,2.30
2023-01-02T02:34:48.657Z,2.30
2023-01-02T02:37:28.656Z,2.33
2023-01-02T02:40:13.082Z,2.30
2023-01-02T02:42:59.517Z,2.31
2023-01-02T02:45:45.376Z,2.34
2023-01-02T02:48:26.152Z,2.35
2023-01-02T02:51:05.281Z,2.35
2023-01-02T02:53:42.743Z,2.36
2023-01-02T02:56:17.605Z,2.35
2023-01-02T02:58:50.975Z,2.35
2023-01-02T03:01:30.664Z,2.31
2023-01-02T03:04:15.662Z,2.31
2023-01-02T03:07:04.270Z,2.32
2023-01-02T03:09:44.651Z,2.30
2023-01-02T03:12:31.858Z,2.28
2023-01-02T03:15:14.285Z,2.21
2023-01-02T03:18:02.414Z,2.17
2023-01-02T03:20:38.883Z,2.13
2023-01-02T03:23:18.297Z,2.15
2023-01-02T03:25:51.757Z,2.09
2023-01-02T03:28:26.776Z,2.05
2023-01-02T03:31:02.466Z,2.06
2023-01-02T03:33:42.544Z,2.05
2023-01-02T03:36:19.718Z,2.06
2023-01-02T03:38:58.996Z,1.96
2023-01-02T03:41:35.715Z,1.98
2023-01-02T03:44:10.441Z,1.97
2023-01-02T03:46:48.224Z,1.99
2023-01-02T03:49:24.587Z,2.01
2023-01-02T03:51:57.666Z,2.01
2023-01-02T03:54:30.889Z,2.01
2023-01-02T03:57:14.071Z,1.99
2023-01-02T03:59:55.017Z,1.84
2023-01-02T04:02:34.135Z,1.97
2023-01-02T04:05:14.524Z,1.98
2023-01-02T04:07:57.306Z,2.02
2023-01-02T04:10:30.737Z,1.99
2023-01-02T04:13:09.646Z,2.01
2023-01-02T04:15:45.522Z,1.93
2023-01-02T04:18:23.249Z,1.91
2023-01-02T04:21:01.621Z,1.93
2023-01-02T04:23:40.155Z,1.94
2023-01-02T04:26:18.349Z,1.91
2023-01-02T04:28:51.309Z,1.86
2023-01-02T04:31:32.137Z,1.84
2023-01-02T04:34:09.032Z,1.86
2023-01-02T04:36:41.750Z,1.85
2023-01-02T04:39:14.749Z,1.84
2023-01-02T04:41:47.207Z,1.85
2023-01-02T04:44:19.534Z,1.82
2023-01-02T04:46:51.923Z,1.84
2023-01-02T04:49:26.039Z,1.83
2023-01-02T04:51:58.419Z,1.81
2023-01-02T04:54:31.380Z,1.75
2023-01-02T04:57:04.042Z,1.76
2023-01-02T04:59:36.344Z,1.70
2023-01-02T05:02:08.931Z,1.77
2023-01-02T05:04:41.443Z,1.76
2023-01-02T05:07:13.807Z,1.61
2023-01-02T05:09:46.792Z,1.74
2023-01-02T05:12:19.241Z,1.74
2023-01-02T05:14:51.619Z,1.72
2023-01-02T05:17:23.999Z,1.71
2023-01-02T05:19:56.333Z,1.71
2023-01-02T05:22:46.638Z,1.70
2023-01-02T05:25:19.720Z,1.73
2023-01-02T05:27:53.637Z,1.70
2023-01-02T05:30:26.047Z,1.69
2023-01-02T05:32:58.769Z,1.67
2023-01-02T05:35:33.214Z,1.67
2023-01-02T05:38:05.930Z,1.64
2023-01-02T05:40:38.953Z,1.65
2023-01-02T05:43:11.334Z,1.64
2023-01-02T05:45:43.726Z,1.58
2023-01-02T05:48:16.107Z,1.56
2023-01-02T05:50:48.380Z,1.55
2023-01-02T05:53:20.771Z,1.52
2023-01-02T05:55:53.740Z,1.54
2023-01-02T05:58:26.093Z,1.58
2023-01-02T06:01:06.446Z,1.57
2023-01-02T06:03:39.068Z,1.48
2023-01-02T06:06:11.470Z,1.51
2023-01-02T06:08:44.068Z,1.57
2023-01-02T06:11:17.336Z,1.67
2023-01-02T06:13:49.624Z,1.65
2023-01-02T06:16:23.486Z,1.63
2023-01-02T06:18:56.003Z,1.66
2023-01-02T06:21:28.341Z,1.64
2023-01-02T06:24:00.768Z,1.68
2023-01-02T06:26:35.352Z,1.65
2023-01-02T06:29:08.919Z,1.67
2023-01-02T06:31:43.539Z,1.68
2023-01-02T06:34:20.136Z,1.67
2023-01-02T06:36:52.484Z,1.69
2023-01-02T06:39:24.875Z,1.71
2023-01-02T06:41:57.919Z,1.73
2023-01-02T06:44:30.330Z,1.74
2023-01-02T06:47:02.664Z,1.73
2023-01-02T06:49:35.063Z,1.74
2023-01-02T06:52:07.363Z,1.76
2023-01-02T06:54:39.801Z,1.77
2023-01-02T06:57:12.847Z,1.82
2023-01-02T06:59:45.307Z,1.88
2023-01-02T07:02:17.678Z,1.92
2023-01-02T07:04:50.192Z,1.91
2023-01-02T07:07:22.504Z,1.92
2023-01-02T07:09:56.490Z,1.91
2023-01-02T07:12:29.461Z,1.94
2023-01-02T07:15:02.216Z,1.85
2023-01-02T07:17:34.580Z,2.02
2023-01-02T07:20:07.809Z,2.06
2023-01-02T07:22:40.159Z,2.11
2023-01-02T07:25:12.533Z,2.14
2023-01-02T07:27:45.815Z,2.18
2023-01-02T07:30:18.270Z,2.25
2023-01-02T07:32:53.080Z,2.32
2023-01-02T07:35:25.481Z,2.39
2023-01-02T07:37:57.822Z,2.47
2023-01-02T07:40:32.254Z,2.52
2023-01-02T07:43:05.597Z,2.59
2023-01-02T07:45:38.039Z,2.68
2023-01-02T07:48:10.483Z,2.80
2023-01-02T07:50:42.859Z,2.87
2023-01-02T07:53:15.283Z,2.99
2023-01-02T07:55:53.162Z,3.16
2023-01-02T07:58:27.474Z,3.22
2023-01-02T08:01:06.051Z,3.42
2023-01-02T08:03:38.883Z,3.52
2023-01-02T08:06:13.121Z,3.64
2023-01-02T08:08:45.468Z,3.77
2023-01-02T08:11:20.330Z,3.86
2023-01-02T08:13:53.312Z,4.02
2023-01-02T08:16:25.827Z,4.20
2023-01-02T08:18:58.145Z,4.39
2023-01-02T08:21:30.553Z,4.53
2023-01-02T08:24:03.036Z,4.68
2023-01-02T08:26:35.403Z,4.84
2023-01-02T08:29:08.741Z,5.01
2023-01-02T08:31:43.849Z,5.22
2023-01-02T08:34:16.936Z,5.36
2023-01-02T08:36:49.301Z,5.49
2023-01-02T08:39:21.624Z,5.66
2023-01-02T08:41:53.993Z,5.82
2023-01-02T08:44:27.044Z,5.99
2023-01-02T08:46:59.427Z,6.13
2023-01-02T08:49:31.828Z,6.29
2023-01-02T08:52:04.511Z,6.47
2023-01-02T08:54:36.841Z,6.61
2023-01-02T08:57:09.248Z,6.76
2023-01-02T08:59:42.237Z,6.95
2023-01-02T09:02:15.169Z,7.12
2023-01-02T09:04:47.659Z,7.21
2023-01-02T09:07:20.047Z,7.35
2023-01-02T09:09:52.421Z,7.45
2023-01-02T09:12:24.859Z,7.66
2023-01-02T09:14:57.844Z,7.67
2023-01-02T09:17:30.589Z,7.83
2023-01-02T09:20:03.453Z,7.98
2023-01-02T09:22:36.421Z,8.06
2023-01-02T09:25:09.269Z,8.18
2023-01-02T09:27:41.694Z,8.12
2023-01-02T09:30:15.227Z,8.39
2023-01-02T09:32:48.410Z,8.61
2023-01-02T09:35:20.728Z,8.79
2023-01-02T09:37:53.096Z,9.00
2023-01-02T09:40:26.625Z,9.18
2023-01-02T09:42:59.844Z,9.34
2023-01-02T09:45:33.593Z,9.49
2023-01-02T09:48:06.245Z,9.62
2023-01-02T09:50:38.925Z,9.75
2023-01-02T09:53:13.519Z,9.90
2023-01-02T09:55:54.480Z,10.06
2023-01-02T09:58:37.073Z,10.19
2023-01-02T10:01:18.485Z,10.34
2023-01-02T10:03:59.763Z,10.36
2023-01-02T10:06:39.594Z,10.47
2023-01-02T10:09:21.714Z,10.56
2023-01-02T10:12:03.754Z,10.71
2023-01-02T10:14:50.702Z,10.75
2023-01-02T10:17:25.665Z,10.83
2023-01-02T10:20:01.639Z,10.83
2023-01-02T10:22:41.486Z,10.68
2023-01-02T10:25:21.584Z,10.69
2023-01-02T10:28:02.043Z,10.65
2023-01-02T10:30:41.304Z,10.68
2023-01-02T10:33:20.497Z,10.74
2023-01-02T10:35:56.552Z,11.03
2023-01-02T10:38:35.107Z,11.10
2023-01-02T10:41:08.844Z,11.21
2023-01-02T10:43:41.181Z,11.46
2023-01-02T10:46:13.598Z,11.48
2023-01-02T10:48:52.073Z,11.67
2023-01-02T10:51:26.687Z,11.93
2023-01-02T10:54:00.862Z,12.06
2023-01-02T10:56:35.963Z,12.20
2023-01-02T10:59:20.440Z,12.16
2023-01-02T11:01:55.512Z,12.26
2023-01-02T11:04:30.552Z,12.30
2023-01-02T11:07:03.767Z,12.18
2023-01-02T11:09:36.149Z,12.25
2023-01-02T11:12:11.003Z,12.20
2023-01-02T11:14:43.287Z,12.49
2023-01-02T11:17:17.401Z,12.62
2023-01-02T11:19:52.785Z,12.54
2023-01-02T11:22:35.595Z,12.55
2023-01-02T11:25:20.378Z,12.67
2023-01-02T11:27:57.408Z,12.94
2023-01-02T11:30:35.664Z,13.13
2023-01-02T11:33:18.805Z,13.21
2023-01-02T11:35:54.303Z,13.28
2023-01-02T11:38:39.504Z,13.32
2023-01-02T11:41:45.485Z,13.32
2023-01-02T11:44:24.496Z,13.38
2023-01-02T11:46:58.525Z,13.37
2023-01-02T11:49:37.721Z,13.24
2023-01-02T11:52:15.848Z,13.34
2023-01-02T11:55:02.958Z,13.42
2023-01-02T11:57:42.408Z,13.45
2023-01-02T12:00:18.501Z,13.53
2023-01-02T12:02:52.260Z,13.74
2023-01-02T12:05:35.598Z,13.69
2023-01-02T12:08:18.048Z,13.68
2023-01-02T12:11:04.704Z,13.85
2023-01-02T12:13:52.760Z,14.04
2023-01-02T12:16:34.641Z,14.21
2023-01-02T12:19:23.975Z,14.28
2023-01-02T12:22:08.079Z,14.41
2023-01-02T12:24:53.832Z,14.28
2023-01-02T12:27:34.730Z,14.38
2023-01-02T12:30:13.346Z,14.50
2023-01-02T12:33:06.853Z,14.25
2023-01-02T12:36:24.207Z,14.43
2023-01-02T12:39:13.133Z,14.34
2023-01-02T12:42:01.912Z,14.29
2023-01-02T12:44:56.155Z,14.45
2023-01-02T12:47:41.935Z,14.36
2023-01-02T12:50:30.625Z,14.37
2023-01-02T12:53:19.376Z,14.43
2023-01-02T12:56:04.779Z,14.49
2023-01-02T12:58:49.236Z,14.43
2023-01-02T13:01:28.283Z,14.61
2023-01-02T13:04:04.711Z,14.69
2023-01-02T13:06:47.716Z,14.42
2023-01-02T13:09:26.837Z,14.38
2023-01-02T13:12:04.495Z,14.44
2023-01-02T13:14:41.360Z,14.59
2023-01-02T13:17:33.800Z,14.57
2023-01-02T13:20:14.378Z,14.34
2023-01-02T13:22:56.010Z,14.39
2023-01-02T13:25:30.846Z,14.25
2023-01-02T13:28:05.264Z,14.26
2023-01-02T13:30:43.907Z,14.34
2023-01-02T13:33:27.771Z,14.25
2023-01-02T13:36:02.673Z,14.23
2023-01-02T13:38:36.235Z,14.31
2023-01-02T13:41:14.614Z,14.22
2023-01-02T13:43:53.262Z,14.25
2023-01-02T13:47:02.182Z,14.26
2023-01-02T13:49:22.317Z,14.34
2023-01-02T13:51:59.432Z,14.45
2023-01-02T13:54:36.428Z,14.44
2023-01-02T13:57:17.811Z,14.50
2023-01-02T13:59:56.927Z,14.48
2023-01-02T14:02:30.200Z,14.51
2023-01-02T14:05:41.004Z,14.47
2023-01-02T14:08:23.966Z,14.47
2023-01-02T14:10:59.706Z,14.49
2023-01-02T14:13:36.001Z,14.48
2023-01-02T14:16:35.314Z,14.42
2023-01-02T14:19:21.743Z,14.43
2023-01-02T14:22:05.456Z,14.40
2023-01-02T14:24:41.028Z,14.33
2023-01-02T14:27:23.690Z,14.22
2023-01-02T14:29:59.048Z,14.14
2023-01-02T14:32:37.741Z,14.05
2023-01-02T14:35:28.387Z,13.91
2023-01-02T14:38:11.733Z,13.64
2023-01-02T14:40:45.707Z,13.48
2023-01-02T14:43:30.639Z,13.30
2023-01-02T14:46:10.026Z,13.12
2023-01-02T14:48:51.545Z,12.77
2023-01-02T14:51:31.733Z,12.58
2023-01-02T14:54:13.222Z,12.35
2023-01-02T14:56:47.964Z,12.17
2023-01-02T14:59:26.856Z,12.02
2023-01-02T15:02:04.538Z,11.86
2023-01-02T15:04:45.105Z,11.75
2023-01-02T15:07:27.171Z,11.63
2023-01-02T15:10:03.390Z,11.48
2023-01-02T15:13:03.374Z,11.37
2023-01-02T15:15:40.254Z,11.20
2023-01-02T15:18:20.111Z,11.04
2023-01-02T15:20:54.395Z,10.89
2023-01-02T15:23:27.513Z,10.77
2023-01-02T15:26:31.083Z,10.65
2023-01-02T15:28:57.865Z,10.49
2023-01-02T15:31:30.713Z,10.37
2023-01-02T15:34:03.053Z,10.26
2023-01-02T15:36:38.082Z,10.18
2023-01-02T15:39:18.001Z,10.05
2023-01-02T15:41:54.636Z,9.96
2023-01-02T15:44:47.752Z,9.87
2023-01-02T15:47:27.330Z,9.76
2023-01-02T15:50:04.912Z,9.71
2023-01-02T15:52:39.229Z,9.63
2023-01-02T15:55:17.289Z,9.49
2023-01-02T15:57:52.628Z,9.40
2023-01-02T16:00:34.777Z,9.30
2023-01-02T16:03:08.811Z,9.21
2023-01-02T16:05:48.877Z,9.13
2023-01-02T16:08:24.216Z,9.03
2023-01-02T16:11:00.841Z,8.94
2023-01-02T16:13:59.125Z,8.82
2023-01-02T16:16:49.395Z,8.66
2023-01-02T16:19:26.876Z,8.64
2023-01-02T16:22:07.889Z,8.49
2023-01-02T16:24:44.642Z,8.48
2023-01-02T16:27:25.111Z,8.42
2023-01-02T16:29:58.015Z,8.36
2023-01-02T16:32:32.218Z,8.30
2023-01-02T16:35:19.486Z,8.17
2023-01-02T16:37:57.275Z,8.07
2023-01-02T16:41:00.350Z,7.98
2023-01-02T16:43:42.817Z,7.92
2023-01-02T16:46:15.925Z,7.82
2023-01-02T16:48:48.352Z,7.77
2023-01-02T16:51:20.834Z,7.70
2023-01-02T16:53:53.170Z,7.60
2023-01-02T16:56:25.573Z,7.57
2023-01-02T16:58:59.497Z,7.54
2023-01-02T17:01:32.004Z,7.46
2023-01-02T17:04:04.607Z,7.37
2023-01-02T17:06:36.991Z,7.32
2023-01-02T17:09:09.311Z,7.26
2023-01-02T17:11:59.427Z,7.21
2023-01-02T17:14:33.353Z,7.15
2023-01-02T17:17:05.812Z,7.11
2023-01-02T17:19:38.208Z,7.08
2023-01-02T17:22:10.643Z,6.99
2023-01-02T17:24:42.950Z,6.97
2023-01-02T17:27:15.517Z,6.93
2023-01-02T17:29:48.529Z,6.87
2023-01-02T17:32:21.020Z,6.79
2023-01-02T17:34:53.351Z,6.76
2023-01-02T17:37:25.784Z,6.66
2023-01-02T17:39:58.812Z,6.63
2023-01-02T17:42:31.391Z,6.55
2023-01-02T17:45:05.469Z,6.49
2023-01-02T17:50:31.782Z,6.45
2023-01-02T17:53:04.164Z,6.39
2023-01-02T17:55:36.522Z,6.35
2023-01-02T17:58:08.965Z,6.31
2023-01-02T18:00:43.563Z,6.27
2023-01-02T18:03:16.038Z,6.22
2023-01-02T18:05:50.583Z,6.18
2023-01-02T18:08:25.687Z,6.13
2023-01-02T18:10:57.999Z,6.07
2023-01-02T18:13:32.875Z,6.00
2023-01-02T18:16:13.679Z,5.96
2023-01-02T18:18:46.382Z,5.95
2023-01-02T18:21:21.292Z,5.89
2023-01-02T18:23:57.145Z,5.87
2023-01-02T18:26:30.645Z,5.80
2023-01-02T18:29:10.071Z,5.76
2023-01-02T18:31:46.413Z,5.73
2023-01-02T18:34:47.120Z,5.71
2023-01-02T18:37:19.364Z,5.59
2023-01-02T18:39:51.933Z,5.46
2023-01-02T18:42:26.969Z,5.52
2023-01-02T18:45:00.073Z,5.44
2023-01-02T18:47:36.653Z,5.42
2023-01-02T18:50:30.966Z,5.33
2023-01-02T18:53:15.517Z,5.37
2023-01-02T18:55:50.128Z,5.37
2023-01-02T18:58:36.000Z,5.33
2023-01-02T19:01:22.649Z,5.29
2023-01-02T19:04:22.092Z,5.23
2023-01-02T19:07:17.880Z,5.19
2023-01-02T19:09:50.282Z,5.20
2023-01-02T19:12:43.596Z,4.98
2023-01-02T19:15:42.150Z,5.12
2023-01-02T19:18:23.689Z,5.00
2023-01-02T19:21:03.335Z,4.95
2023-01-02T19:23:42.947Z,4.92
2023-01-02T19:26:23.499Z,4.87
2023-01-02T19:29:00.107Z,4.85
2023-01-02T19:31:41.465Z,4.82
2023-01-02T19:34:27.131Z,4.78
2023-01-02T19:37:23.889Z,4.82
2023-01-02T19:39:58.390Z,4.73
2023-01-02T19:42:31.614Z,4.69
2023-01-02T19:45:06.844Z,4.76
2023-01-02T19:47:39.616Z,4.68
2023-01-02T19:50:14.310Z,4.74
2023-01-02T19:52:47.741Z,4.74
2023-01-02T19:55:20.161Z,4.69
2023-01-02T19:57:52.560Z,4.72
2023-01-02T20:00:24.880Z,4.66
2023-01-02T20:02:57.364Z,4.67
2023-01-02T20:05:30.185Z,4.64
2023-01-02T20:08:03.329Z,4.59
2023-01-02T20:10:35.934Z,4.55
2023-01-02T20:13:08.344Z,4.48
2023-01-02T20:15:40.712Z,4.49
2023-01-02T20:18:17.216Z,4.50
2023-01-02T20:20:49.589Z,4.47
2023-01-02T20:23:22.659Z,4.43
2023-01-02T20:25:55.012Z,4.43
2023-01-02T20:28:27.392Z,4.37
2023-01-02T20:30:59.857Z,4.34
2023-01-02T20:33:32.738Z,4.32
2023-01-02T20:36:11.352Z,4.34
2023-01-02T20:38:46.396Z,4.29
2023-01-02T20:41:18.874Z,4.26
2023-01-02T20:43:51.243Z,4.25
2023-01-02T20:46:23.696Z,4.27
2023-01-02T20:48:56.152Z,4.21
2023-01-02T20:51:29.529Z,4.18
2023-01-02T20:54:03.690Z,4.19
2023-01-02T20:56:36.060Z,4.15
2023-01-02T20:59:08.456Z,4.12
2023-01-02T21:01:41.794Z,4.11
2023-01-02T21:04:18.652Z,4.08
2023-01-02T21:06:53.116Z,4.07
2023-01-02T21:09:26.216Z,4.08
2023-01-02T21:11:58.581Z,4.08
2023-01-02T21:14:37.115Z,4.06
2023-01-02T21:17:09.793Z,4.06
2023-01-02T21:19:42.160Z,4.00
2023-01-02T21:22:14.475Z,4.00
2023-01-02T21:24:47.561Z,3.98
2023-01-02T21:27:19.946Z,3.94
2023-01-02T21:29:52.335Z,3.90
2023-01-02T21:32:24.683Z,3.92
2023-01-02T21:34:57.057Z,3.91
2023-01-02T21:37:29.418Z,3.89
2023-01-02T21:40:04.998Z,3.89
2023-01-02T21:42:44.497Z,3.85
2023-01-02T21:45:17.552Z,3.84
2023-01-02T21:47:50.143Z,3.85
2023-01-02T21:50:23.175Z,3.88
2023-01-02T21:52:55.513Z,3.84
2023-01-02T21:55:28.522Z,3.83
2023-01-02T21:58:16.329Z,3.84
2023-01-02T22:00:50.924Z,3.74
2023-01-02T22:03:23.403Z,3.73
2023-01-02T22:05:55.899Z,3.72
2023-01-02T22:08:28.188Z,3.69
2023-01-02T22:11:16.124Z,3.65
2023-01-02T22:13:48.466Z,3.67
2023-01-02T22:16:20.913Z,3.68
2023-01-02T22:18:53.253Z,3.67
2023-01-02T22:21:25.665Z,3.68
2023-01-02T22:23:58.162Z,3.65
2023-01-02T22:26:31.748Z,3.57
2023-01-02T22:29:04.966Z,3.57
2023-01-02T22:31:37.812Z,3.65
2023-01-02T22:34:10.668Z,3.63
2023-01-02T22:36:43.098Z,3.63
2023-01-02T22:39:27.978Z,3.57
2023-01-02T22:42:49.325Z,3.60
2023-01-02T22:45:18.734Z,3.56
2023-01-02T22:47:51.592Z,3.56
2023-01-02T22:50:26.664Z,3.54
2023-01-02T22:52:59.967Z,3.48
2023-01-02T22:55:32.793Z,3.51
2023-01-02T22:58:06.187Z,3.54
2023-01-02T23:00:38.960Z,3.57
2023-01-02T23:03:12.993Z,3.54
2023-01-02T23:05:45.360Z,3.57
2023-01-02T23:08:18.701Z,3.56
2023-01-02T23:10:51.065Z,3.54
2023-01-02T23:13:24.328Z,3.53
2023-01-02T23:16:14.996Z,3.54
2023-01-02T23:19:05.893Z,3.51
2023-01-02T23:21:39.545Z,3.50
2023-01-02T23:24:13.499Z,3.46
2023-01-02T23:26:49.823Z,3.48
2023-01-02T23:29:24.956Z,3.40
2023-01-02T23:31:57.397Z,3.27
2023-01-02T23:34:30.156Z,3.38
2023-01-02T23:37:03.018Z,3.33
2023-01-02T23:39:35.379Z,3.35
2023-01-02T23:42:07.700Z,3.36
2023-01-02T23:44:41.306Z,3.34
2023-01-02T23:47:18.885Z,3.36
2023-01-02T23:49:51.876Z,3.36
2023-01-02T23:52:24.181Z,3.39
2023-01-02T23:54:56.574Z,3.38
2023-01-02T23:57:28.879Z,3.33
